createdAt,value
2017-05-31T00:00:00.557Z,17.35
2017-05-31T00:00:05.285Z,17.35
2017-05-31T00:00:09.477Z,17.36
2017-05-31T00:00:13.903Z,17.34
2017-05-31T00:00:18.209Z,17.35
2017-05-31T00:00:22.587Z,17.34
2017-05-31T00:00:27.047Z,17.34
2017-05-31T00:00:31.235Z,17.34
2017-05-31T00:00:35.666Z,17.34
2017-05-31T00:00:40.093Z,17.34
2017-05-31T00:00:44.518Z,17.34
2017-05-31T00:00:48.944Z,17.34
2017-05-31T00:00:53.141Z,17.34
2017-05-31T00:00:57.456Z,17.34
2017-05-31T00:01:01.775Z,17.34
2017-05-31T00:01:06.199Z,17.34
2017-05-31T00:01:10.504Z,17.34
2017-05-31T00:01:14.931Z,17.34
2017-05-31T00:01:19.375Z,17.33
2017-05-31T00:01:23.686Z,17.34
2017-05-31T00:01:27.777Z,17.33
2017-05-31T00:01:32.086Z,17.34
2017-05-31T00:01:36.389Z,17.34
2017-05-31T00:01:40.697Z,17.34
2017-05-31T00:01:45.118Z,17.33
2017-05-31T00:01:49.539Z,17.34
2017-05-31T00:01:53.850Z,17.33
2017-05-31T00:01:58.169Z,17.33
2017-05-31T00:02:02.699Z,17.33
2017-05-31T00:02:06.769Z,17.34
2017-05-31T00:02:11.079Z,17.33
2017-05-31T00:02:15.395Z,17.33
2017-05-31T00:02:19.827Z,17.34
2017-05-31T00:02:23.799Z,17.34
2017-05-31T00:02:28.010Z,17.33
2017-05-31T00:02:32.431Z,17.33
2017-05-31T00:02:36.857Z,17.33
2017-05-31T00:02:41.049Z,17.33
2017-05-31T00:02:45.471Z,17.33
2017-05-31T00:02:49.901Z,17.34
2017-05-31T00:02:54.397Z,17.34
2017-05-31T00:02:58.709Z,17.34
2017-05-31T00:03:03.132Z,17.34
2017-05-31T00:03:07.434Z,17.33
2017-05-31T00:03:11.627Z,17.33
2017-05-31T00:03:16.049Z,17.34
2017-05-31T00:03:20.473Z,17.34
2017-05-31T00:03:24.670Z,17.34
2017-05-31T00:03:28.984Z,17.34
2017-05-31T00:03:33.294Z,17.33
2017-05-31T00:03:37.715Z,17.34
2017-05-31T00:03:42.018Z,17.33
2017-05-31T00:03:46.439Z,17.33
2017-05-31T00:03:50.875Z,17.33
2017-05-31T00:03:55.309Z,17.33
2017-05-31T00:03:59.626Z,17.33
2017-05-31T00:04:03.868Z,17.33
2017-05-31T00:04:08.176Z,17.33
2017-05-31T00:04:12.485Z,17.33
2017-05-31T00:04:16.909Z,17.33
2017-05-31T00:04:21.566Z,17.34
2017-05-31T00:04:25.652Z,17.34
2017-05-31T00:04:29.848Z,17.35
2017-05-31T00:04:34.281Z,17.33
2017-05-31T00:04:38.600Z,17.34
2017-05-31T00:04:42.908Z,17.33
2017-05-31T00:04:47.333Z,17.33
2017-05-31T00:04:51.761Z,17.34
2017-05-31T00:04:56.246Z,17.34
2017-05-31T00:05:00.555Z,17.33
2017-05-31T00:05:04.927Z,17.34
2017-05-31T00:05:09.242Z,17.33
2017-05-31T00:05:13.548Z,17.33
2017-05-31T00:05:17.973Z,17.33
2017-05-31T00:05:22.294Z,17.33
2017-05-31T00:05:26.612Z,17.33
2017-05-31T00:05:31.053Z,17.32
2017-05-31T00:05:35.359Z,17.32
2017-05-31T00:05:39.563Z,17.33
2017-05-31T00:05:43.870Z,17.33
2017-05-31T00:05:48.291Z,17.33
2017-05-31T00:05:52.486Z,17.33
2017-05-31T00:05:56.913Z,17.32
2017-05-31T00:06:01.216Z,17.33
2017-05-31T00:06:05.523Z,17.33
2017-05-31T00:06:09.947Z,17.33
2017-05-31T00:06:14.137Z,17.33
2017-05-31T00:06:18.328Z,17.33
2017-05-31T00:06:22.834Z,17.33
2017-05-31T00:06:27.026Z,17.33
2017-05-31T00:06:31.242Z,17.32
2017-05-31T00:06:35.670Z,17.33
2017-05-31T00:06:39.984Z,17.33
2017-05-31T00:06:44.413Z,17.33
2017-05-31T00:06:48.777Z,17.33
2017-05-31T00:06:52.978Z,17.32
2017-05-31T00:06:57.407Z,17.33
2017-05-31T00:07:01.830Z,17.32
2017-05-31T00:07:06.143Z,17.32
2017-05-31T00:07:10.220Z,17.32
2017-05-31T00:07:14.641Z,17.32
2017-05-31T00:07:19.074Z,17.32
2017-05-31T00:07:23.507Z,17.32
2017-05-31T00:07:27.946Z,17.32
2017-05-31T00:07:32.370Z,17.33
2017-05-31T00:07:36.557Z,17.32
2017-05-31T00:07:40.978Z,17.32
2017-05-31T00:07:45.403Z,17.32
2017-05-31T00:07:49.602Z,17.32
2017-05-31T00:07:53.914Z,17.31
2017-05-31T00:07:58.245Z,17.32
2017-05-31T00:08:02.668Z,17.32
2017-05-31T00:08:07.095Z,17.32
2017-05-31T00:08:11.284Z,17.32
2017-05-31T00:08:15.473Z,17.31
2017-05-31T00:08:19.792Z,17.32
2017-05-31T00:08:24.293Z,17.31
2017-05-31T00:08:28.479Z,17.31
2017-05-31T00:08:32.784Z,17.31
2017-05-31T00:08:37.205Z,17.31
2017-05-31T00:08:41.511Z,17.31
2017-05-31T00:08:45.817Z,17.31
2017-05-31T00:08:50.129Z,17.31
2017-05-31T00:08:54.444Z,17.31
2017-05-31T00:08:58.760Z,17.32
2017-05-31T00:09:03.234Z,17.31
2017-05-31T00:09:07.667Z,17.31
2017-05-31T00:09:11.977Z,17.31
2017-05-31T00:09:16.163Z,17.31
2017-05-31T00:09:20.597Z,17.3
2017-05-31T00:09:24.916Z,17.3
2017-05-31T00:09:28.989Z,17.31
2017-05-31T00:09:33.419Z,17.3
2017-05-31T00:09:37.769Z,17.31
2017-05-31T00:09:42.076Z,17.3
2017-05-31T00:09:46.500Z,17.3
2017-05-31T00:09:50.812Z,17.3
2017-05-31T00:09:55.244Z,17.3
2017-05-31T00:09:59.668Z,17.31
2017-05-31T00:10:03.866Z,17.3
2017-05-31T00:10:08.173Z,17.3
2017-05-31T00:10:12.244Z,17.31
2017-05-31T00:10:16.672Z,17.3
2017-05-31T00:10:21.102Z,17.3
2017-05-31T00:10:25.527Z,17.31
2017-05-31T00:10:29.834Z,17.3
2017-05-31T00:10:34.140Z,17.3
2017-05-31T00:10:38.339Z,17.3
2017-05-31T00:10:42.771Z,17.3
2017-05-31T00:10:47.233Z,17.29
2017-05-31T00:10:51.311Z,17.3
2017-05-31T00:10:55.734Z,17.3
2017-05-31T00:10:59.805Z,17.29
2017-05-31T00:11:04.231Z,17.3
2017-05-31T00:11:08.542Z,17.3
2017-05-31T00:11:12.850Z,17.3
2017-05-31T00:11:16.930Z,17.3
2017-05-31T00:11:21.242Z,17.3
2017-05-31T00:11:25.563Z,17.3
2017-05-31T00:11:29.634Z,17.3
2017-05-31T00:11:33.944Z,17.3
2017-05-31T00:11:38.251Z,17.29
2017-05-31T00:11:42.676Z,17.29
2017-05-31T00:11:46.992Z,17.29
2017-05-31T00:11:51.306Z,17.29
2017-05-31T00:11:55.738Z,17.3
2017-05-31T00:12:00.041Z,17.29
2017-05-31T00:12:04.534Z,17.3
2017-05-31T00:12:08.966Z,17.29
2017-05-31T00:12:13.276Z,17.29
2017-05-31T00:12:17.474Z,17.29
2017-05-31T00:12:21.792Z,17.29
2017-05-31T00:12:26.004Z,17.28
2017-05-31T00:12:30.312Z,17.29
2017-05-31T00:12:34.617Z,17.29
2017-05-31T00:12:39.041Z,17.29
2017-05-31T00:12:43.470Z,17.29
2017-05-31T00:12:47.899Z,17.29
2017-05-31T00:12:52.328Z,17.29
2017-05-31T00:12:56.639Z,17.29
2017-05-31T00:13:00.707Z,17.29
2017-05-31T00:13:05.129Z,17.29
2017-05-31T00:13:09.432Z,17.29
2017-05-31T00:13:13.742Z,17.29
2017-05-31T00:13:17.986Z,17.29
2017-05-31T00:13:22.181Z,17.3
2017-05-31T00:13:26.486Z,17.29
2017-05-31T00:13:30.676Z,17.28
2017-05-31T00:13:35.097Z,17.29
2017-05-31T00:13:39.401Z,17.3
2017-05-31T00:13:43.825Z,17.3
2017-05-31T00:13:48.253Z,17.29
2017-05-31T00:13:52.742Z,17.29
2017-05-31T00:13:57.174Z,17.28
2017-05-31T00:14:01.365Z,17.28
2017-05-31T00:14:05.792Z,17.28
2017-05-31T00:14:10.096Z,17.29
2017-05-31T00:14:14.281Z,17.29
2017-05-31T00:14:18.423Z,17.28
2017-05-31T00:14:22.855Z,17.29
2017-05-31T00:14:27.292Z,17.28
2017-05-31T00:14:31.596Z,17.28
2017-05-31T00:14:35.789Z,17.29
2017-05-31T00:14:40.215Z,17.29
2017-05-31T00:14:44.520Z,17.28
2017-05-31T00:14:48.959Z,17.28
2017-05-31T00:14:53.388Z,17.29
2017-05-31T00:14:57.716Z,17.29
2017-05-31T00:15:02.025Z,17.28
2017-05-31T00:15:06.449Z,17.28
2017-05-31T00:15:10.642Z,17.28
2017-05-31T00:15:14.959Z,17.29
2017-05-31T00:15:19.276Z,17.28
2017-05-31T00:15:23.710Z,17.29
2017-05-31T00:15:28.151Z,17.29
2017-05-31T00:15:32.225Z,17.29
2017-05-31T00:15:36.413Z,17.29
2017-05-31T00:15:40.720Z,17.29
2017-05-31T00:15:45.029Z,17.29
2017-05-31T00:15:49.348Z,17.29
2017-05-31T00:15:53.662Z,17.29
2017-05-31T00:15:57.869Z,17.29
2017-05-31T00:16:02.296Z,17.29
2017-05-31T00:16:06.607Z,17.29
2017-05-31T00:16:11.033Z,17.29
2017-05-31T00:16:15.115Z,17.29
2017-05-31T00:16:19.305Z,17.29
2017-05-31T00:16:23.687Z,17.29
2017-05-31T00:16:27.783Z,17.28
2017-05-31T00:16:32.095Z,17.28
2017-05-31T00:16:36.402Z,17.29
2017-05-31T00:16:40.709Z,17.29
2017-05-31T00:16:45.013Z,17.29
2017-05-31T00:16:49.440Z,17.29
2017-05-31T00:16:53.636Z,17.29
2017-05-31T00:16:57.833Z,17.29
2017-05-31T00:17:02.141Z,17.29
2017-05-31T00:17:06.456Z,17.3
2017-05-31T00:17:10.885Z,17.29
2017-05-31T00:17:15.308Z,17.29
2017-05-31T00:17:19.729Z,17.29
2017-05-31T00:17:24.154Z,17.29
2017-05-31T00:17:28.655Z,17.29
2017-05-31T00:17:33.088Z,17.29
2017-05-31T00:17:37.399Z,17.29
2017-05-31T00:17:41.828Z,17.29
2017-05-31T00:17:46.255Z,17.3
2017-05-31T00:17:50.560Z,17.3
2017-05-31T00:17:54.753Z,17.3
2017-05-31T00:17:59.183Z,17.3
2017-05-31T00:18:03.648Z,17.29
2017-05-31T00:18:07.953Z,17.29
2017-05-31T00:18:12.256Z,17.29
2017-05-31T00:18:16.212Z,17.28
2017-05-31T00:18:20.401Z,17.3
2017-05-31T00:18:24.714Z,17.29
2017-05-31T00:18:29.029Z,17.3
2017-05-31T00:18:33.223Z,17.3
2017-05-31T00:18:37.530Z,17.29
2017-05-31T00:18:41.838Z,17.29
2017-05-31T00:18:46.147Z,17.29
2017-05-31T00:18:50.342Z,17.29
2017-05-31T00:18:54.779Z,17.29
2017-05-31T00:18:59.147Z,17.28
2017-05-31T00:19:03.579Z,17.29
2017-05-31T00:19:08.006Z,17.29
2017-05-31T00:19:12.316Z,17.29
2017-05-31T00:19:16.620Z,17.29
2017-05-31T00:19:20.926Z,17.29
2017-05-31T00:19:25.354Z,17.3
2017-05-31T00:19:29.603Z,17.29
2017-05-31T00:19:33.800Z,17.28
2017-05-31T00:19:38.237Z,17.28
2017-05-31T00:19:42.676Z,17.28
2017-05-31T00:19:46.987Z,17.29
2017-05-31T00:19:51.297Z,17.28
2017-05-31T00:19:55.613Z,17.29
2017-05-31T00:20:00.050Z,17.28
2017-05-31T00:20:04.363Z,17.28
2017-05-31T00:20:08.313Z,17.28
2017-05-31T00:20:12.617Z,17.28
2017-05-31T00:20:16.922Z,17.28
2017-05-31T00:20:21.243Z,17.28
2017-05-31T00:20:25.557Z,17.28
2017-05-31T00:20:29.754Z,17.28
2017-05-31T00:20:33.943Z,17.28
2017-05-31T00:20:38.371Z,17.27
2017-05-31T00:20:42.677Z,17.28
2017-05-31T00:20:46.982Z,17.28
2017-05-31T00:20:51.291Z,17.28
2017-05-31T00:20:55.670Z,17.27
2017-05-31T00:21:00.095Z,17.28
2017-05-31T00:21:04.519Z,17.27
2017-05-31T00:21:08.596Z,17.27
2017-05-31T00:21:12.807Z,17.27
2017-05-31T00:21:17.000Z,17.27
2017-05-31T00:21:21.193Z,17.28
2017-05-31T00:21:25.576Z,17.27
2017-05-31T00:21:29.780Z,17.26
2017-05-31T00:21:34.084Z,17.27
2017-05-31T00:21:38.510Z,17.27
2017-05-31T00:21:42.933Z,17.27
2017-05-31T00:21:47.126Z,17.26
2017-05-31T00:21:51.558Z,17.25
2017-05-31T00:21:55.996Z,17.26
2017-05-31T00:22:00.423Z,17.25
2017-05-31T00:22:04.735Z,17.25
2017-05-31T00:22:09.042Z,17.26
2017-05-31T00:22:13.464Z,17.25
2017-05-31T00:22:17.666Z,17.25
2017-05-31T00:22:22.096Z,17.25
2017-05-31T00:22:26.285Z,17.25
2017-05-31T00:22:30.482Z,17.26
2017-05-31T00:22:34.904Z,17.25
2017-05-31T00:22:39.326Z,17.25
2017-05-31T00:22:43.519Z,17.25
2017-05-31T00:22:47.831Z,17.24
2017-05-31T00:22:52.258Z,17.24
2017-05-31T00:22:56.690Z,17.24
2017-05-31T00:23:01.003Z,17.24
2017-05-31T00:23:05.584Z,17.24
2017-05-31T00:23:09.897Z,17.24
2017-05-31T00:23:14.329Z,17.23
2017-05-31T00:23:18.763Z,17.23
2017-05-31T00:23:22.964Z,17.23
2017-05-31T00:23:27.181Z,17.23
2017-05-31T00:23:31.604Z,17.23
2017-05-31T00:23:35.907Z,17.23
2017-05-31T00:23:40.100Z,17.23
2017-05-31T00:23:44.403Z,17.23
2017-05-31T00:23:48.719Z,17.22
2017-05-31T00:23:53.056Z,17.22
2017-05-31T00:23:57.255Z,17.22
2017-05-31T00:24:01.678Z,17.22
2017-05-31T00:24:06.042Z,17.22
2017-05-31T00:24:10.233Z,17.22
2017-05-31T00:24:14.542Z,17.21
2017-05-31T00:24:18.969Z,17.22
2017-05-31T00:24:23.408Z,17.21
2017-05-31T00:24:27.598Z,17.21
2017-05-31T00:24:32.026Z,17.21
2017-05-31T00:24:36.214Z,17.2
2017-05-31T00:24:40.641Z,17.2
2017-05-31T00:24:44.836Z,17.2
2017-05-31T00:24:49.269Z,17.21
2017-05-31T00:24:53.466Z,17.2
2017-05-31T00:24:57.895Z,17.2
2017-05-31T00:25:02.254Z,17.2
2017-05-31T00:25:06.561Z,17.19
2017-05-31T00:25:10.870Z,17.19
2017-05-31T00:25:15.066Z,17.2
2017-05-31T00:25:19.279Z,17.19
2017-05-31T00:25:23.717Z,17.19
2017-05-31T00:25:28.160Z,17.19
2017-05-31T00:25:32.353Z,17.19
2017-05-31T00:25:36.665Z,17.19
2017-05-31T00:25:40.970Z,17.18
2017-05-31T00:25:45.396Z,17.18
2017-05-31T00:25:49.771Z,17.18
2017-05-31T00:25:53.965Z,17.18
2017-05-31T00:25:58.270Z,17.18
2017-05-31T00:26:02.441Z,17.18
2017-05-31T00:26:06.867Z,17.18
2017-05-31T00:26:11.172Z,17.17
2017-05-31T00:26:15.363Z,17.18
2017-05-31T00:26:19.787Z,17.18
2017-05-31T00:26:24.223Z,17.17
2017-05-31T00:26:28.433Z,17.17
2017-05-31T00:26:32.739Z,17.17
2017-05-31T00:26:37.048Z,17.17
2017-05-31T00:26:41.477Z,17.18
2017-05-31T00:26:45.904Z,17.18
2017-05-31T00:26:50.335Z,17.17
2017-05-31T00:26:54.768Z,17.16
2017-05-31T00:26:59.196Z,17.17
2017-05-31T00:27:03.387Z,17.17
2017-05-31T00:27:07.695Z,17.16
2017-05-31T00:27:12.005Z,17.15
2017-05-31T00:27:16.428Z,17.16
2017-05-31T00:27:20.859Z,17.15
2017-05-31T00:27:25.175Z,17.16
2017-05-31T00:27:29.487Z,17.15
2017-05-31T00:27:33.795Z,17.15
2017-05-31T00:27:37.878Z,17.14
2017-05-31T00:27:42.302Z,17.14
2017-05-31T00:27:46.729Z,17.15
2017-05-31T00:27:50.806Z,17.15
2017-05-31T00:27:55.120Z,17.14
2017-05-31T00:27:59.565Z,17.14
2017-05-31T00:28:03.979Z,17.14
2017-05-31T00:28:08.402Z,17.14
2017-05-31T00:28:12.828Z,17.14
2017-05-31T00:28:16.895Z,17.14
2017-05-31T00:28:21.328Z,17.14
2017-05-31T00:28:25.759Z,17.14
2017-05-31T00:28:29.857Z,17.13
2017-05-31T00:28:34.281Z,17.13
2017-05-31T00:28:38.590Z,17.13
2017-05-31T00:28:43.012Z,17.13
2017-05-31T00:28:47.206Z,17.13
2017-05-31T00:28:51.639Z,17.12
2017-05-31T00:28:56.003Z,17.13
2017-05-31T00:29:00.436Z,17.12
2017-05-31T00:29:05.009Z,17.13
2017-05-31T00:29:09.436Z,17.12
2017-05-31T00:29:13.622Z,17.12
2017-05-31T00:29:18.045Z,17.12
2017-05-31T00:29:22.477Z,17.12
2017-05-31T00:29:26.913Z,17.12
2017-05-31T00:29:31.106Z,17.12
2017-05-31T00:29:35.528Z,17.12
2017-05-31T00:29:39.952Z,17.11
2017-05-31T00:29:44.378Z,17.12
2017-05-31T00:29:48.692Z,17.11
2017-05-31T00:29:53.121Z,17.11
2017-05-31T00:29:57.431Z,17.11
2017-05-31T00:30:01.855Z,17.11
2017-05-31T00:30:06.163Z,17.11
2017-05-31T00:30:10.359Z,17.1
2017-05-31T00:30:14.669Z,17.11
2017-05-31T00:30:19.095Z,17.11
2017-05-31T00:30:23.522Z,17.11
2017-05-31T00:30:27.593Z,17.1
2017-05-31T00:30:31.784Z,17.11
2017-05-31T00:30:36.208Z,17.11
2017-05-31T00:30:40.518Z,17.1
2017-05-31T00:30:44.943Z,17.1
2017-05-31T00:30:49.257Z,17.1
2017-05-31T00:30:53.574Z,17.11
2017-05-31T00:30:58.006Z,17.09
2017-05-31T00:31:02.311Z,17.11
2017-05-31T00:31:06.620Z,17.1
2017-05-31T00:31:10.818Z,17.1
2017-05-31T00:31:15.247Z,17.1
2017-05-31T00:31:19.672Z,17.1
2017-05-31T00:31:24.105Z,17.11
2017-05-31T00:31:28.188Z,17.1
2017-05-31T00:31:32.610Z,17.11
2017-05-31T00:31:36.920Z,17.11
2017-05-31T00:31:41.229Z,17.1
2017-05-31T00:31:45.655Z,17.1
2017-05-31T00:31:49.966Z,17.1
2017-05-31T00:31:54.338Z,17.1
2017-05-31T00:31:58.798Z,17.1
2017-05-31T00:32:03.330Z,17.09
2017-05-31T00:32:07.636Z,17.09
2017-05-31T00:32:11.942Z,17.1
2017-05-31T00:32:16.251Z,17.09
2017-05-31T00:32:20.680Z,17.09
2017-05-31T00:32:25.110Z,17.09
2017-05-31T00:32:29.427Z,17.09
2017-05-31T00:32:33.729Z,17.1
2017-05-31T00:32:38.034Z,17.09
2017-05-31T00:32:42.342Z,17.1
2017-05-31T00:32:46.767Z,17.09
2017-05-31T00:32:51.132Z,17.09
2017-05-31T00:32:55.573Z,17.09
2017-05-31T00:32:59.888Z,17.09
2017-05-31T00:33:04.360Z,17.09
2017-05-31T00:33:08.670Z,17.1
2017-05-31T00:33:12.976Z,17.09
2017-05-31T00:33:17.400Z,17.09
2017-05-31T00:33:21.596Z,17.09
2017-05-31T00:33:26.090Z,17.08
2017-05-31T00:33:30.422Z,17.08
2017-05-31T00:33:34.729Z,17.09
2017-05-31T00:33:39.154Z,17.09
2017-05-31T00:33:43.469Z,17.07
2017-05-31T00:33:47.892Z,17.09
2017-05-31T00:33:51.966Z,17.08
2017-05-31T00:33:56.399Z,17.09
2017-05-31T00:34:00.612Z,17.09
2017-05-31T00:34:05.041Z,17.08
2017-05-31T00:34:08.885Z,17.09
2017-05-31T00:34:13.079Z,17.09
2017-05-31T00:34:17.390Z,17.09
2017-05-31T00:34:21.817Z,17.08
2017-05-31T00:34:26.193Z,17.09
2017-05-31T00:34:30.524Z,17.09
2017-05-31T00:34:34.947Z,17.09
2017-05-31T00:34:39.367Z,17.09
2017-05-31T00:34:43.677Z,17.09
2017-05-31T00:34:47.987Z,17.1
2017-05-31T00:34:52.182Z,17.09
2017-05-31T00:34:56.505Z,17.1
2017-05-31T00:35:00.812Z,17.09
2017-05-31T00:35:05.322Z,17.09
2017-05-31T00:35:09.629Z,17.1
2017-05-31T00:35:13.819Z,17.1
2017-05-31T00:35:18.259Z,17.09
2017-05-31T00:35:22.792Z,17.09
2017-05-31T00:35:27.119Z,17.1
2017-05-31T00:35:31.194Z,17.1
2017-05-31T00:35:35.621Z,17.1
2017-05-31T00:35:39.926Z,17.09
2017-05-31T00:35:44.356Z,17.1
2017-05-31T00:35:48.786Z,17.1
2017-05-31T00:35:53.217Z,17.09
2017-05-31T00:35:57.523Z,17.1
2017-05-31T00:36:01.980Z,17.11
2017-05-31T00:36:06.178Z,17.1
2017-05-31T00:36:10.482Z,17.1
2017-05-31T00:36:14.677Z,17.1
2017-05-31T00:36:19.107Z,17.11
2017-05-31T00:36:23.536Z,17.11
2017-05-31T00:36:27.843Z,17.1
2017-05-31T00:36:32.151Z,17.1
2017-05-31T00:36:36.583Z,17.1
2017-05-31T00:36:41.019Z,17.1
2017-05-31T00:36:45.449Z,17.11
2017-05-31T00:36:49.885Z,17.1
2017-05-31T00:36:54.205Z,17.1
2017-05-31T00:36:58.514Z,17.1
2017-05-31T00:37:02.817Z,17.1
2017-05-31T00:37:06.891Z,17.1
2017-05-31T00:37:11.197Z,17.1
2017-05-31T00:37:15.622Z,17.1
2017-05-31T00:37:19.946Z,17.1
2017-05-31T00:37:24.249Z,17.1
2017-05-31T00:37:28.674Z,17.1
2017-05-31T00:37:33.104Z,17.1
2017-05-31T00:37:37.528Z,17.11
2017-05-31T00:37:41.957Z,17.1
2017-05-31T00:37:46.383Z,17.1
2017-05-31T00:37:50.829Z,17.1
2017-05-31T00:37:55.144Z,17.1
2017-05-31T00:37:59.449Z,17.1
2017-05-31T00:38:03.632Z,17.1
2017-05-31T00:38:08.058Z,17.1
2017-05-31T00:38:12.244Z,17.11
2017-05-31T00:38:16.676Z,17.11
2017-05-31T00:38:21.107Z,17.11
2017-05-31T00:38:25.434Z,17.1
2017-05-31T00:38:29.739Z,17.11
2017-05-31T00:38:34.046Z,17.11
2017-05-31T00:38:38.475Z,17.11
2017-05-31T00:38:42.789Z,17.12
2017-05-31T00:38:47.279Z,17.11
2017-05-31T00:38:51.717Z,17.11
2017-05-31T00:38:56.021Z,17.11
2017-05-31T00:39:00.219Z,17.11
2017-05-31T00:39:04.825Z,17.11
2017-05-31T00:39:09.250Z,17.12
2017-05-31T00:39:13.442Z,17.11
2017-05-31T00:39:17.520Z,17.12
2017-05-31T00:39:21.831Z,17.12
2017-05-31T00:39:26.150Z,17.12
2017-05-31T00:39:30.456Z,17.11
2017-05-31T00:39:34.761Z,17.12
2017-05-31T00:39:39.183Z,17.12
2017-05-31T00:39:43.609Z,17.13
2017-05-31T00:39:48.040Z,17.12
2017-05-31T00:39:52.472Z,17.12
2017-05-31T00:39:56.782Z,17.12
2017-05-31T00:40:00.967Z,17.13
2017-05-31T00:40:05.313Z,17.13
2017-05-31T00:40:09.623Z,17.12
2017-05-31T00:40:13.819Z,17.13
2017-05-31T00:40:18.135Z,17.13
2017-05-31T00:40:22.440Z,17.13
2017-05-31T00:40:26.744Z,17.13
2017-05-31T00:40:31.167Z,17.12
2017-05-31T00:40:35.593Z,17.12
2017-05-31T00:40:40.019Z,17.13
2017-05-31T00:40:44.327Z,17.12
2017-05-31T00:40:48.643Z,17.12
2017-05-31T00:40:53.072Z,17.13
2017-05-31T00:40:57.140Z,17.13
2017-05-31T00:41:01.448Z,17.14
2017-05-31T00:41:05.766Z,17.13
2017-05-31T00:41:10.188Z,17.13
2017-05-31T00:41:14.444Z,17.14
2017-05-31T00:41:18.758Z,17.14
2017-05-31T00:41:23.065Z,17.14
2017-05-31T00:41:27.135Z,17.14
2017-05-31T00:41:31.443Z,17.14
2017-05-31T00:41:35.755Z,17.14
2017-05-31T00:41:40.182Z,17.14
2017-05-31T00:41:44.488Z,17.14
2017-05-31T00:41:48.801Z,17.14
2017-05-31T00:41:53.240Z,17.15
2017-05-31T00:41:57.664Z,17.14
2017-05-31T00:42:02.089Z,17.15
2017-05-31T00:42:06.277Z,17.15
2017-05-31T00:42:10.700Z,17.14
2017-05-31T00:42:15.178Z,17.16
2017-05-31T00:42:19.612Z,17.15
2017-05-31T00:42:24.040Z,17.15
2017-05-31T00:42:28.228Z,17.15
2017-05-31T00:42:32.660Z,17.16
2017-05-31T00:42:37.101Z,17.16
2017-05-31T00:42:41.401Z,17.16
2017-05-31T00:42:45.597Z,17.17
2017-05-31T00:42:49.833Z,17.16
2017-05-31T00:42:54.265Z,17.15
2017-05-31T00:42:58.693Z,17.16
2017-05-31T00:43:03.325Z,17.16
2017-05-31T00:43:07.752Z,17.17
2017-05-31T00:43:12.057Z,17.17
2017-05-31T00:43:16.365Z,17.16
2017-05-31T00:43:21.027Z,17.17
2017-05-31T00:43:25.343Z,17.18
2017-05-31T00:43:29.769Z,17.18
2017-05-31T00:43:34.200Z,17.18
2017-05-31T00:43:38.506Z,17.17
2017-05-31T00:43:42.926Z,17.17
2017-05-31T00:43:47.240Z,17.17
2017-05-31T00:43:51.321Z,17.18
2017-05-31T00:43:55.803Z,17.17
2017-05-31T00:44:00.247Z,17.17
2017-05-31T00:44:04.676Z,17.17
2017-05-31T00:44:08.982Z,17.18
2017-05-31T00:44:13.294Z,17.18
2017-05-31T00:44:17.718Z,17.18
2017-05-31T00:44:21.909Z,17.17
2017-05-31T00:44:26.106Z,17.18
2017-05-31T00:44:30.543Z,17.17
2017-05-31T00:44:34.965Z,17.17
2017-05-31T00:44:39.388Z,17.18
2017-05-31T00:44:43.808Z,17.18
2017-05-31T00:44:47.881Z,17.19
2017-05-31T00:44:52.314Z,17.19
2017-05-31T00:44:56.626Z,17.19
2017-05-31T00:45:00.819Z,17.18
2017-05-31T00:45:05.125Z,17.19
2017-05-31T00:45:09.431Z,17.19
2017-05-31T00:45:13.741Z,17.19
2017-05-31T00:45:18.173Z,17.19
2017-05-31T00:45:22.522Z,17.19
2017-05-31T00:45:26.956Z,17.19
2017-05-31T00:45:31.287Z,17.2
2017-05-31T00:45:35.724Z,17.19
2017-05-31T00:45:40.145Z,17.2
2017-05-31T00:45:44.457Z,17.2
2017-05-31T00:45:48.766Z,17.19
2017-05-31T00:45:53.077Z,17.21
2017-05-31T00:45:57.392Z,17.19
2017-05-31T00:46:01.887Z,17.19
2017-05-31T00:46:06.074Z,17.21
2017-05-31T00:46:10.279Z,17.2
2017-05-31T00:46:14.355Z,17.21
2017-05-31T00:46:18.546Z,17.22
2017-05-31T00:46:22.860Z,17.21
2017-05-31T00:46:27.300Z,17.21
2017-05-31T00:46:31.611Z,17.2
2017-05-31T00:46:36.033Z,17.21
2017-05-31T00:46:40.458Z,17.21
2017-05-31T00:46:44.881Z,17.21
2017-05-31T00:46:49.198Z,17.21
2017-05-31T00:46:53.626Z,17.22
2017-05-31T00:46:57.833Z,17.22
2017-05-31T00:47:02.262Z,17.22
2017-05-31T00:47:06.688Z,17.23
2017-05-31T00:47:10.994Z,17.22
2017-05-31T00:47:15.415Z,17.22
2017-05-31T00:47:19.727Z,17.22
2017-05-31T00:47:24.207Z,17.23
2017-05-31T00:47:28.284Z,17.22
2017-05-31T00:47:32.600Z,17.23
2017-05-31T00:47:36.906Z,17.23
2017-05-31T00:47:41.331Z,17.23
2017-05-31T00:47:45.759Z,17.23
2017-05-31T00:47:50.185Z,17.23
2017-05-31T00:47:54.497Z,17.23
2017-05-31T00:47:58.811Z,17.24
2017-05-31T00:48:03.253Z,17.23
2017-05-31T00:48:07.562Z,17.24
2017-05-31T00:48:11.872Z,17.24
2017-05-31T00:48:16.062Z,17.24
2017-05-31T00:48:20.136Z,17.24
2017-05-31T00:48:24.621Z,17.24
2017-05-31T00:48:28.950Z,17.24
2017-05-31T00:48:33.136Z,17.24
2017-05-31T00:48:37.323Z,17.24
2017-05-31T00:48:41.632Z,17.25
2017-05-31T00:48:45.943Z,17.24
2017-05-31T00:48:50.134Z,17.24
2017-05-31T00:48:54.449Z,17.24
2017-05-31T00:48:58.768Z,17.24
2017-05-31T00:49:03.073Z,17.25
2017-05-31T00:49:07.379Z,17.25
2017-05-31T00:49:11.684Z,17.25
2017-05-31T00:49:16.107Z,17.25
2017-05-31T00:49:20.532Z,17.25
2017-05-31T00:49:24.974Z,17.26
2017-05-31T00:49:29.414Z,17.26
2017-05-31T00:49:33.606Z,17.26
2017-05-31T00:49:37.795Z,17.25
2017-05-31T00:49:42.107Z,17.25
2017-05-31T00:49:46.543Z,17.25
2017-05-31T00:49:50.851Z,17.25
2017-05-31T00:49:55.049Z,17.26
2017-05-31T00:49:59.499Z,17.26
2017-05-31T00:50:04.125Z,17.26
2017-05-31T00:50:08.437Z,17.26
2017-05-31T00:50:12.742Z,17.26
2017-05-31T00:50:16.933Z,17.26
2017-05-31T00:50:21.255Z,17.26
2017-05-31T00:50:25.577Z,17.26
2017-05-31T00:50:29.913Z,17.26
2017-05-31T00:50:34.218Z,17.26
2017-05-31T00:50:38.527Z,17.26
2017-05-31T00:50:42.948Z,17.26
2017-05-31T00:50:47.255Z,17.26
2017-05-31T00:50:51.683Z,17.25
2017-05-31T00:50:55.877Z,17.26
2017-05-31T00:51:00.326Z,17.26
2017-05-31T00:51:04.673Z,17.26
2017-05-31T00:51:08.979Z,17.26
2017-05-31T00:51:13.284Z,17.26
2017-05-31T00:51:17.710Z,17.26
2017-05-31T00:51:21.904Z,17.26
2017-05-31T00:51:26.225Z,17.26
2017-05-31T00:51:30.298Z,17.26
2017-05-31T00:51:34.604Z,17.26
2017-05-31T00:51:39.027Z,17.26
2017-05-31T00:51:43.456Z,17.25
2017-05-31T00:51:47.880Z,17.26
2017-05-31T00:51:52.068Z,17.26
2017-05-31T00:51:56.434Z,17.26
2017-05-31T00:52:00.750Z,17.26
2017-05-31T00:52:05.166Z,17.27
2017-05-31T00:52:09.593Z,17.27
2017-05-31T00:52:13.779Z,17.27
2017-05-31T00:52:18.208Z,17.27
2017-05-31T00:52:22.419Z,17.27
2017-05-31T00:52:26.854Z,17.27
2017-05-31T00:52:31.061Z,17.26
2017-05-31T00:52:35.482Z,17.27
2017-05-31T00:52:39.908Z,17.26
2017-05-31T00:52:44.329Z,17.27
2017-05-31T00:52:48.755Z,17.27
2017-05-31T00:52:52.950Z,17.26
2017-05-31T00:52:57.260Z,17.27
2017-05-31T00:53:01.571Z,17.27
2017-05-31T00:53:05.811Z,17.27
2017-05-31T00:53:10.004Z,17.28
2017-05-31T00:53:14.197Z,17.27
2017-05-31T00:53:18.387Z,17.27
2017-05-31T00:53:22.702Z,17.28
2017-05-31T00:53:26.903Z,17.28
2017-05-31T00:53:31.238Z,17.28
2017-05-31T00:53:35.664Z,17.28
2017-05-31T00:53:40.087Z,17.28
2017-05-31T00:53:44.398Z,17.28
2017-05-31T00:53:48.595Z,17.28
2017-05-31T00:53:52.910Z,17.28
2017-05-31T00:53:57.343Z,17.28
2017-05-31T00:54:01.972Z,17.27
2017-05-31T00:54:06.165Z,17.27
2017-05-31T00:54:10.472Z,17.27
2017-05-31T00:54:14.785Z,17.28
2017-05-31T00:54:19.217Z,17.28
2017-05-31T00:54:23.529Z,17.27
2017-05-31T00:54:27.975Z,17.28
2017-05-31T00:54:32.286Z,17.28
2017-05-31T00:54:36.475Z,17.27
2017-05-31T00:54:40.905Z,17.28
2017-05-31T00:54:45.332Z,17.27
2017-05-31T00:54:49.765Z,17.28
2017-05-31T00:54:54.087Z,17.27
2017-05-31T00:54:58.517Z,17.28
2017-05-31T00:55:03.243Z,17.27
2017-05-31T00:55:07.671Z,17.28
2017-05-31T00:55:11.748Z,17.28
2017-05-31T00:55:15.939Z,17.27
2017-05-31T00:55:20.130Z,17.28
2017-05-31T00:55:24.325Z,17.28
2017-05-31T00:55:28.754Z,17.28
2017-05-31T00:55:32.942Z,17.27
2017-05-31T00:55:37.367Z,17.27
2017-05-31T00:55:41.788Z,17.28
2017-05-31T00:55:46.212Z,17.28
2017-05-31T00:55:50.521Z,17.27
2017-05-31T00:55:54.954Z,17.28
2017-05-31T00:55:59.387Z,17.27
2017-05-31T00:56:03.921Z,17.28